createdAt,value
2022-12-25T00:02:15.662Z,37.78
2022-12-25T00:04:43.108Z,37.90
2022-12-25T00:07:11.321Z,34.83
2022-12-25T00:09:38.846Z,31.93
2022-12-25T00:12:06.807Z,29.18
2022-12-25T00:14:35.785Z,28.90
2022-12-25T00:17:03.632Z,28.70
2022-12-25T00:19:31.389Z,29.45
2022-12-25T00:21:59.117Z,30.37
2022-12-25T00:24:26.973Z,27.85
2022-12-25T00:26:54.751Z,28.38
2022-12-25T00:29:22.972Z,28.12
2022-12-25T00:31:50.969Z,25.27
2022-12-25T00:34:18.772Z,23.65
2022-12-25T00:36:47.045Z,27.35
2022-12-25T00:39:14.409Z,26.30
2022-12-25T00:42:00.459Z,26.35
2022-12-25T00:44:28.475Z,21.93
2022-12-25T00:46:56.067Z,21.68
2022-12-25T00:49:25.495Z,21.10
2022-12-25T00:51:53.303Z,22.93
2022-12-25T00:54:21.238Z,21.52
2022-12-25T00:56:49.057Z,19.00
2022-12-25T00:59:17.029Z,25.45
2022-12-25T01:01:44.979Z,24.57
2022-12-25T01:04:13.217Z,23.75
2022-12-25T01:06:41.103Z,23.55
2022-12-25T01:09:27.761Z,21.60
2022-12-25T01:11:55.477Z,27.05
2022-12-25T01:14:23.509Z,21.10
2022-12-25T01:16:51.271Z,24.37
2022-12-25T01:19:18.986Z,26.15
2022-12-25T01:21:46.787Z,25.55
2022-12-25T01:24:14.739Z,26.95
2022-12-25T01:26:42.500Z,24.23
2022-12-25T01:29:10.196Z,23.22
2022-12-25T01:31:37.958Z,22.98
2022-12-25T01:34:06.382Z,24.07
2022-12-25T01:36:34.231Z,26.02
2022-12-25T01:39:02.018Z,43.13
2022-12-25T01:41:29.607Z,39.42
2022-12-25T01:44:17.809Z,40.15
2022-12-25T01:46:45.880Z,39.38
2022-12-25T01:49:19.206Z,64.87
2022-12-25T01:51:58.280Z,52.90
2022-12-25T01:54:37.417Z,59.75
2022-12-25T01:57:09.566Z,69.97
2022-12-25T01:59:37.772Z,52.93
2022-12-25T02:02:05.410Z,73.65
2022-12-25T02:04:44.608Z,60.40
2022-12-25T02:07:22.432Z,68.42
2022-12-25T02:09:52.023Z,62.88
2022-12-25T02:12:26.958Z,56.55
2022-12-25T02:15:04.902Z,52.33
2022-12-25T02:17:39.772Z,47.25
2022-12-25T02:20:39.748Z,50.25
2022-12-25T02:23:28.139Z,58.58
2022-12-25T02:26:29.572Z,49.73
2022-12-25T02:29:09.485Z,70.67
2022-12-25T02:32:04.340Z,50.80
2022-12-25T02:34:49.143Z,49.00
2022-12-25T02:37:47.323Z,56.40
2022-12-25T02:40:29.726Z,66.35
2022-12-25T02:43:24.746Z,59.08
2022-12-25T02:46:18.649Z,52.37
2022-12-25T02:49:12.099Z,50.80
2022-12-25T02:52:03.293Z,32.48
2022-12-25T02:54:54.852Z,29.98
2022-12-25T02:57:45.489Z,26.42
2022-12-25T03:00:33.485Z,22.98
2022-12-25T03:03:24.547Z,24.37
2022-12-25T03:06:15.710Z,23.40
2022-12-25T03:08:48.026Z,25.02
2022-12-25T03:11:30.824Z,23.90
2022-12-25T03:14:21.138Z,21.27
2022-12-25T03:16:54.149Z,23.15
2022-12-25T03:19:46.090Z,19.60
2022-12-25T03:22:42.550Z,16.62
2022-12-25T03:25:29.196Z,18.02
2022-12-25T03:27:58.415Z,14.90
2022-12-25T03:31:11.526Z,16.52
2022-12-25T03:34:35.771Z,17.92
2022-12-25T03:37:41.928Z,20.72
2022-12-25T03:40:34.411Z,22.77
2022-12-25T03:43:31.978Z,20.15
2022-12-25T03:46:22.562Z,20.88
2022-12-25T03:49:14.694Z,21.30
2022-12-25T03:52:02.700Z,21.30
2022-12-25T03:54:51.789Z,20.77
2022-12-25T03:57:38.007Z,18.00
2022-12-25T04:00:25.502Z,20.55
2022-12-25T04:03:11.855Z,18.23
2022-12-25T04:05:58.438Z,14.03
2022-12-25T04:08:44.794Z,15.95
2022-12-25T04:11:31.415Z,14.70
2022-12-25T04:14:17.391Z,15.20
2022-12-25T04:17:03.535Z,15.32
2022-12-25T04:19:50.200Z,17.30
2022-12-25T04:22:36.459Z,17.12
2022-12-25T04:25:23.151Z,13.00
2022-12-25T04:28:09.463Z,16.12
2022-12-25T04:30:55.759Z,13.32
2022-12-25T04:33:41.697Z,15.60
2022-12-25T04:36:09.869Z,15.68
2022-12-25T04:38:39.261Z,18.27
2022-12-25T04:41:10.151Z,17.92
2022-12-25T04:43:38.315Z,19.32
2022-12-25T04:46:06.391Z,16.57
2022-12-25T04:48:36.477Z,15.23
2022-12-25T04:51:18.991Z,15.20
2022-12-25T04:53:48.176Z,15.13
2022-12-25T04:56:19.236Z,16.97
2022-12-25T04:58:46.934Z,16.20
2022-12-25T05:01:15.580Z,13.72
2022-12-25T05:03:43.843Z,15.90
2022-12-25T05:06:11.983Z,17.48
2022-12-25T05:08:39.835Z,16.05
2022-12-25T05:11:11.050Z,16.17
2022-12-25T05:13:39.192Z,13.48
2022-12-25T05:16:17.221Z,17.10
2022-12-25T05:18:50.577Z,12.23
2022-12-25T05:21:19.201Z,14.43
2022-12-25T05:23:52.607Z,15.03
2022-12-25T05:26:24.233Z,14.23
2022-12-25T05:28:52.715Z,11.63
2022-12-25T05:31:20.744Z,14.28
2022-12-25T05:33:52.528Z,14.30
2022-12-25T05:36:20.485Z,15.28
2022-12-25T05:38:48.417Z,13.32
2022-12-25T05:41:16.210Z,16.45
2022-12-25T05:43:43.970Z,16.02
2022-12-25T05:46:13.872Z,14.47
2022-12-25T05:48:41.896Z,15.55
2022-12-25T05:51:12.358Z,17.80
2022-12-25T05:53:43.454Z,19.85
2022-12-25T05:56:12.197Z,20.68
2022-12-25T05:58:40.460Z,17.82
2022-12-25T06:01:18.044Z,18.52
2022-12-25T06:03:45.971Z,19.62
2022-12-25T06:06:14.285Z,15.05
2022-12-25T06:08:42.298Z,20.90
2022-12-25T06:11:11.130Z,17.45
2022-12-25T06:13:38.923Z,16.23
2022-12-25T06:16:09.682Z,14.30
2022-12-25T06:18:39.863Z,17.48
2022-12-25T06:21:11.006Z,15.95
2022-12-25T06:23:39.279Z,14.68
2022-12-25T06:26:11.136Z,17.32
2022-12-25T06:28:38.691Z,15.25
2022-12-25T06:31:12.437Z,18.67
2022-12-25T06:33:40.640Z,29.50
2022-12-25T06:36:12.983Z,25.75
2022-12-25T06:38:40.788Z,19.82
2022-12-25T06:41:13.638Z,16.90
2022-12-25T06:43:41.251Z,20.02
2022-12-25T06:46:11.980Z,15.20
2022-12-25T06:48:43.066Z,17.00
2022-12-25T06:51:10.814Z,21.97
2022-12-25T06:53:40.116Z,28.00
2022-12-25T06:56:14.209Z,26.57
2022-12-25T06:58:51.446Z,21.97
2022-12-25T07:01:24.513Z,22.75
2022-12-25T07:04:00.227Z,16.25
2022-12-25T07:06:28.472Z,16.55
2022-12-25T07:08:56.523Z,20.08
2022-12-25T07:11:24.873Z,18.62
2022-12-25T07:13:52.686Z,18.32
2022-12-25T07:16:20.682Z,23.05
2022-12-25T07:18:48.434Z,23.20
2022-12-25T07:21:19.443Z,22.87
2022-12-25T07:23:49.883Z,22.65
2022-12-25T07:26:18.337Z,21.52
2022-12-25T07:28:46.237Z,23.02
2022-12-25T07:31:16.538Z,25.50
2022-12-25T07:33:45.438Z,29.40
2022-12-25T07:36:15.326Z,20.15
2022-12-25T07:38:43.734Z,18.85
2022-12-25T07:41:12.544Z,20.88
2022-12-25T07:43:40.901Z,19.02
2022-12-25T07:46:10.100Z,23.95
2022-12-25T07:48:39.759Z,25.17
2022-12-25T07:51:11.722Z,24.50
2022-12-25T07:53:40.570Z,29.67
2022-12-25T07:56:16.808Z,23.02
2022-12-25T07:58:47.879Z,23.35
2022-12-25T08:01:23.303Z,19.75
2022-12-25T08:03:58.330Z,23.20
2022-12-25T08:06:34.586Z,19.42
2022-12-25T08:09:07.245Z,18.17
2022-12-25T08:11:35.980Z,19.37
2022-12-25T08:14:08.038Z,15.08
2022-12-25T08:16:38.029Z,15.90
2022-12-25T08:19:05.650Z,17.40
2022-12-25T08:21:34.608Z,15.98
2022-12-25T08:24:02.882Z,13.53
2022-12-25T08:26:31.362Z,24.12
2022-12-25T08:28:59.315Z,12.18
2022-12-25T08:31:29.396Z,21.00
2022-12-25T08:33:58.924Z,15.65
2022-12-25T08:36:27.079Z,11.28
2022-12-25T08:39:02.090Z,18.32
2022-12-25T08:41:24.837Z,20.40
2022-12-25T08:43:52.687Z,13.70
2022-12-25T08:46:20.809Z,12.68
2022-12-25T08:48:49.927Z,11.22
2022-12-25T08:51:20.964Z,12.45
2022-12-25T08:53:52.052Z,18.92
2022-12-25T08:56:20.569Z,16.32
2022-12-25T08:58:48.907Z,19.48
2022-12-25T09:01:16.772Z,16.10
2022-12-25T09:03:44.929Z,19.52
2022-12-25T09:06:15.956Z,17.05
2022-12-25T09:08:49.248Z,15.00
2022-12-25T09:11:16.343Z,15.03
2022-12-25T09:13:44.152Z,16.40
2022-12-25T09:16:16.656Z,21.00
2022-12-25T09:18:44.832Z,22.77
2022-12-25T09:21:14.611Z,15.25
2022-12-25T09:23:42.949Z,15.68
2022-12-25T09:26:14.466Z,15.15
2022-12-25T09:28:48.750Z,16.65
2022-12-25T09:31:13.190Z,15.85
2022-12-25T09:33:41.330Z,19.98
2022-12-25T09:36:10.068Z,12.50
2022-12-25T09:38:37.547Z,12.47
2022-12-25T09:41:25.695Z,10.20
2022-12-25T09:44:10.505Z,12.98
2022-12-25T09:46:46.863Z,10.43
2022-12-25T09:49:42.778Z,12.47
2022-12-25T09:52:27.256Z,13.62
2022-12-25T09:55:21.224Z,13.58
2022-12-25T09:57:58.266Z,12.70
2022-12-25T10:00:36.153Z,17.20
2022-12-25T10:03:39.452Z,17.12
2022-12-25T10:06:21.902Z,11.88
2022-12-25T10:09:19.401Z,9.08
2022-12-25T10:12:11.746Z,14.85
2022-12-25T10:15:06.568Z,13.48
2022-12-25T10:17:52.335Z,15.05
2022-12-25T10:23:00.550Z,14.90
2022-12-25T10:25:28.495Z,12.25
2022-12-25T10:28:01.680Z,19.42
2022-12-25T10:30:31.050Z,15.85
2022-12-25T10:32:58.866Z,12.58
2022-12-25T10:35:29.549Z,13.32
2022-12-25T10:38:04.408Z,16.93
2022-12-25T10:41:01.590Z,15.60
2022-12-25T10:43:55.066Z,11.95
2022-12-25T10:46:26.884Z,12.50
2022-12-25T10:49:00.745Z,15.00
2022-12-25T10:51:35.318Z,15.30
2022-12-25T10:54:24.399Z,12.98
2022-12-25T10:57:06.422Z,13.55
2022-12-25T10:59:44.601Z,22.30
2022-12-25T11:02:33.230Z,16.07
2022-12-25T11:05:08.200Z,17.73
2022-12-25T11:07:40.305Z,16.15
2022-12-25T11:10:32.537Z,17.17
2022-12-25T11:13:01.803Z,13.80
2022-12-25T11:15:45.752Z,16.60
2022-12-25T11:18:26.488Z,14.83
2022-12-25T11:20:58.317Z,14.13
2022-12-25T11:23:29.623Z,14.23
2022-12-25T11:26:02.031Z,18.70
2022-12-25T11:28:33.628Z,60.33
2022-12-25T11:31:09.610Z,15.88
2022-12-25T11:33:45.383Z,18.95
2022-12-25T11:36:25.016Z,12.03
2022-12-25T11:38:52.757Z,18.10
2022-12-25T11:41:24.623Z,15.68
2022-12-25T11:44:04.019Z,10.30
2022-12-25T11:46:37.240Z,14.95
2022-12-25T11:49:09.646Z,13.88
2022-12-25T11:51:41.544Z,13.10
2022-12-25T11:54:33.550Z,17.25
2022-12-25T11:57:04.432Z,18.15
2022-12-25T11:59:55.869Z,17.95
2022-12-25T12:02:38.530Z,26.45
2022-12-25T12:05:26.997Z,21.62
2022-12-25T12:07:59.608Z,18.42
2022-12-25T12:10:58.532Z,16.00
2022-12-25T12:13:47.162Z,18.60
2022-12-25T12:16:15.017Z,9.73
2022-12-25T12:18:49.810Z,12.58
2022-12-25T12:21:26.548Z,34.85
2022-12-25T12:24:10.025Z,12.50
2022-12-25T12:26:40.908Z,9.75
2022-12-25T12:29:37.626Z,18.57
2022-12-25T12:32:09.890Z,14.30
2022-12-25T12:34:47.539Z,11.28
2022-12-25T12:37:29.472Z,15.95
2022-12-25T12:39:58.274Z,12.60
2022-12-25T12:42:33.118Z,13.35
2022-12-25T12:45:12.621Z,12.73
2022-12-25T12:47:45.987Z,14.60
2022-12-25T12:50:37.043Z,17.42
2022-12-25T12:53:25.460Z,8.33
2022-12-25T12:55:53.541Z,11.20
2022-12-25T12:58:34.649Z,14.85
2022-12-25T13:01:28.289Z,15.60
2022-12-25T13:04:41.795Z,14.43
2022-12-25T13:07:59.306Z,12.15
2022-12-25T13:10:53.041Z,12.68
2022-12-25T13:13:32.473Z,11.53
2022-12-25T13:16:00.149Z,11.85
2022-12-25T13:18:28.228Z,15.45
2022-12-25T13:21:03.881Z,11.00
2022-12-25T13:23:38.865Z,12.98
2022-12-25T13:26:16.744Z,13.20
2022-12-25T13:28:47.373Z,14.38
2022-12-25T13:31:25.824Z,16.20
2022-12-25T13:34:23.765Z,16.65
2022-12-25T13:36:52.362Z,13.72
2022-12-25T13:39:20.715Z,16.73
2022-12-25T13:42:08.979Z,13.22
2022-12-25T13:44:52.286Z,13.32
2022-12-25T13:47:28.678Z,15.90
2022-12-25T13:50:00.153Z,23.32
2022-12-25T13:52:37.431Z,17.20
2022-12-25T13:55:16.447Z,20.65
2022-12-25T13:58:02.677Z,13.13
2022-12-25T14:00:46.432Z,12.93
2022-12-25T14:03:25.852Z,17.73
2022-12-25T14:06:02.008Z,31.10
2022-12-25T14:08:32.013Z,16.70
2022-12-25T14:11:04.473Z,18.62
2022-12-25T14:13:40.344Z,19.05
2022-12-25T14:16:12.346Z,16.02
2022-12-25T14:18:51.905Z,18.17
2022-12-25T14:21:33.309Z,19.25
2022-12-25T14:24:01.548Z,64.35
2022-12-25T14:26:35.853Z,27.82
2022-12-25T14:29:17.837Z,20.10
2022-12-25T14:31:47.474Z,24.75
2022-12-25T14:34:26.805Z,23.32
2022-12-25T14:36:54.839Z,20.90
2022-12-25T14:39:37.818Z,25.27
2022-12-25T14:42:22.381Z,22.60
2022-12-25T14:45:23.421Z,38.10
2022-12-25T14:47:58.473Z,49.93
2022-12-25T14:50:39.080Z,49.73
2022-12-25T14:53:20.483Z,55.05
2022-12-25T14:55:53.902Z,50.12
2022-12-25T14:58:27.835Z,43.83
2022-12-25T15:00:59.247Z,40.03
2022-12-25T15:03:35.862Z,41.88
2022-12-25T15:08:40.885Z,52.75
2022-12-25T15:11:08.940Z,53.87
2022-12-25T15:13:36.697Z,71.92
2022-12-25T15:16:15.115Z,124.02
2022-12-25T15:18:46.587Z,97.12
2022-12-25T15:21:24.183Z,78.00
2022-12-25T15:23:57.445Z,64.65
2022-12-25T15:26:28.740Z,56.00
2022-12-25T15:28:57.851Z,56.05
2022-12-25T15:31:32.386Z,73.22
2022-12-25T15:34:04.058Z,80.22
2022-12-25T15:36:32.284Z,79.70
2022-12-25T15:39:01.134Z,80.83
2022-12-25T15:41:52.526Z,85.53
2022-12-25T15:44:20.994Z,76.45
2022-12-25T15:46:49.031Z,84.30
2022-12-25T15:49:17.496Z,88.05
2022-12-25T15:51:46.968Z,76.28
2022-12-25T15:54:14.954Z,79.67
2022-12-25T15:56:47.140Z,77.22
2022-12-25T15:59:17.506Z,75.20
2022-12-25T16:01:53.164Z,84.45
2022-12-25T16:04:25.293Z,88.22
2022-12-25T16:06:54.790Z,79.00
2022-12-25T16:09:23.131Z,85.55
2022-12-25T16:11:51.283Z,98.62
2022-12-25T16:14:18.966Z,101.90
2022-12-25T16:16:46.765Z,120.87
2022-12-25T16:19:14.417Z,120.33
2022-12-25T16:21:46.993Z,141.90
2022-12-25T16:24:14.767Z,126.72
2022-12-25T16:26:42.963Z,129.25
2022-12-25T16:29:11.120Z,136.45
2022-12-25T16:31:39.424Z,124.00
2022-12-25T16:34:08.228Z,125.50
2022-12-25T16:36:36.183Z,124.18
2022-12-25T16:39:04.508Z,108.42
2022-12-25T16:41:32.969Z,106.87
2022-12-25T16:44:08.003Z,106.10
2022-12-25T16:46:36.951Z,109.05
2022-12-25T16:49:05.216Z,112.25
2022-12-25T16:51:33.310Z,148.78
2022-12-25T16:54:01.297Z,148.17
2022-12-25T16:56:30.255Z,236.03
2022-12-25T16:58:58.778Z,131.20
2022-12-25T17:01:27.124Z,173.45
2022-12-25T17:04:01.188Z,167.47
2022-12-25T17:06:29.219Z,153.18
2022-12-25T17:08:59.822Z,154.27
2022-12-25T17:11:29.782Z,143.95
2022-12-25T17:14:02.064Z,133.55
2022-12-25T17:16:34.254Z,118.15
2022-12-25T17:19:07.778Z,127.65
2022-12-25T17:21:37.845Z,130.70
2022-12-25T17:24:06.773Z,129.47
2022-12-25T17:26:35.449Z,140.40
2022-12-25T17:29:03.745Z,138.47
2022-12-25T17:31:31.548Z,129.10
2022-12-25T17:34:01.567Z,117.65
2022-12-25T17:36:30.938Z,129.12
2022-12-25T17:39:01.223Z,118.22
2022-12-25T17:41:29.169Z,111.00
2022-12-25T17:43:56.907Z,97.10
2022-12-25T17:46:28.497Z,92.55
2022-12-25T17:48:59.661Z,73.12
2022-12-25T17:51:30.262Z,72.92
2022-12-25T17:54:02.657Z,69.00
2022-12-25T17:56:31.616Z,65.70
2022-12-25T17:59:03.958Z,61.90
2022-12-25T18:01:32.729Z,62.53
2022-12-25T18:04:01.120Z,67.22
2022-12-25T18:06:29.270Z,83.58
2022-12-25T18:08:58.013Z,95.80
2022-12-25T18:11:30.914Z,89.65
2022-12-25T18:14:04.720Z,99.85
2022-12-25T18:16:35.479Z,112.97
2022-12-25T18:19:04.022Z,126.85
2022-12-25T18:21:32.016Z,130.82
2022-12-25T18:24:03.775Z,128.32
2022-12-25T18:26:32.599Z,135.75
2022-12-25T18:29:02.456Z,125.33
2022-12-25T18:31:31.282Z,112.15
2022-12-25T18:34:00.161Z,92.82
2022-12-25T18:36:29.541Z,99.58
2022-12-25T18:38:58.830Z,100.82
2022-12-25T18:41:28.232Z,86.37
2022-12-25T18:43:57.579Z,75.42
2022-12-25T18:46:27.380Z,78.83
2022-12-25T18:48:56.924Z,72.03
2022-12-25T18:51:28.694Z,81.05
2022-12-25T18:53:56.029Z,70.60
2022-12-25T18:56:23.648Z,72.80
2022-12-25T18:58:51.452Z,69.15
2022-12-25T19:01:23.533Z,66.95
2022-12-25T19:03:57.160Z,71.37
2022-12-25T19:06:26.515Z,65.15
2022-12-25T19:08:59.120Z,70.00
2022-12-25T19:11:26.885Z,70.87
2022-12-25T19:13:55.831Z,66.20
2022-12-25T19:16:23.932Z,64.00
2022-12-25T19:18:51.771Z,61.88
2022-12-25T19:21:19.705Z,67.47
2022-12-25T19:23:47.585Z,58.48
2022-12-25T19:26:15.287Z,58.33
2022-12-25T19:28:43.171Z,56.20
2022-12-25T19:31:11.949Z,55.25
2022-12-25T19:33:41.906Z,53.13
2022-12-25T19:36:13.798Z,55.50
2022-12-25T19:38:43.450Z,55.25
2022-12-25T19:41:17.792Z,46.58
2022-12-25T19:43:47.900Z,49.63
2022-12-25T19:46:29.441Z,52.03
2022-12-25T19:48:58.719Z,53.63
2022-12-25T19:51:28.760Z,60.23
2022-12-25T19:53:56.797Z,61.80
2022-12-25T19:56:26.822Z,65.87
2022-12-25T19:58:55.533Z,63.13
2022-12-25T20:01:27.255Z,70.60
2022-12-25T20:03:56.755Z,65.78
2022-12-25T20:06:31.669Z,62.58
2022-12-25T20:09:04.651Z,60.48
2022-12-25T20:11:34.704Z,70.60
2022-12-25T20:14:04.503Z,66.97
2022-12-25T20:16:32.738Z,68.35
2022-12-25T20:19:00.409Z,64.62
2022-12-25T20:21:29.328Z,59.85
2022-12-25T20:23:57.373Z,61.23
2022-12-25T20:26:29.007Z,59.23
2022-12-25T20:28:57.480Z,58.85
2022-12-25T20:31:29.201Z,57.43
2022-12-25T20:34:00.472Z,54.48
2022-12-25T20:36:34.429Z,64.03
2022-12-25T20:38:57.671Z,55.25
2022-12-25T20:41:27.328Z,54.03
2022-12-25T20:43:54.970Z,53.80
2022-12-25T20:46:25.229Z,60.50
2022-12-25T20:48:53.575Z,55.40
2022-12-25T20:51:25.355Z,62.95
2022-12-25T20:53:54.342Z,69.62
2022-12-25T20:56:25.423Z,63.63
2022-12-25T20:58:57.637Z,70.87
2022-12-25T21:01:28.215Z,69.00
2022-12-25T21:03:57.218Z,65.85
2022-12-25T21:06:25.017Z,58.60
2022-12-25T21:08:54.486Z,63.45
2022-12-25T21:11:23.023Z,62.67
2022-12-25T21:13:51.023Z,69.53
2022-12-25T21:16:24.908Z,66.80
2022-12-25T21:18:58.851Z,78.35
2022-12-25T21:21:27.474Z,147.75
2022-12-25T21:23:56.670Z,126.25
2022-12-25T21:26:30.448Z,135.95
2022-12-25T21:29:01.724Z,161.82
2022-12-25T21:31:33.021Z,164.05
2022-12-25T21:34:00.635Z,84.47
2022-12-25T21:36:31.819Z,72.27
2022-12-25T21:39:07.518Z,70.78
2022-12-25T21:41:38.118Z,66.87
2022-12-25T21:44:08.456Z,61.20
2022-12-25T21:46:36.199Z,64.85
2022-12-25T21:49:03.967Z,69.25
2022-12-25T21:51:52.720Z,66.28
2022-12-25T21:54:23.696Z,73.67
2022-12-25T21:56:51.530Z,74.47
2022-12-25T21:59:21.637Z,74.47
2022-12-25T22:02:06.845Z,77.25
2022-12-25T22:04:36.570Z,78.50
2022-12-25T22:07:17.206Z,79.05
2022-12-25T22:09:48.571Z,70.32
2022-12-25T22:12:38.129Z,71.07
2022-12-25T22:15:10.774Z,70.15
2022-12-25T22:18:00.209Z,77.20
2022-12-25T22:20:36.152Z,73.70
2022-12-25T22:23:05.074Z,69.85
2022-12-25T22:25:32.890Z,73.83
2022-12-25T22:28:00.678Z,71.97
2022-12-25T22:30:29.274Z,66.67
2022-12-25T22:32:57.387Z,58.90
2022-12-25T22:35:25.202Z,56.40
2022-12-25T22:37:53.642Z,51.25
2022-12-25T22:40:21.417Z,54.20
2022-12-25T22:42:53.184Z,53.05
2022-12-25T22:45:22.799Z,45.48
2022-12-25T22:47:53.390Z,40.98
2022-12-25T22:50:21.925Z,37.93
2022-12-25T22:52:50.565Z,45.08
2022-12-25T22:55:21.899Z,39.27
2022-12-25T22:57:51.689Z,41.05
2022-12-25T23:00:20.759Z,40.43
2022-12-25T23:02:49.075Z,37.33
2022-12-25T23:05:17.757Z,42.53
2022-12-25T23:07:45.456Z,40.83
2022-12-25T23:10:13.411Z,43.15
2022-12-25T23:13:00.125Z,50.05
2022-12-25T23:15:28.457Z,58.92
2022-12-25T23:18:14.435Z,60.95
2022-12-25T23:21:00.818Z,60.67
2022-12-25T23:23:47.478Z,54.90
2022-12-25T23:26:18.415Z,53.85
2022-12-25T23:29:04.714Z,44.38
2022-12-25T23:31:40.198Z,46.40
2022-12-25T23:34:09.893Z,37.25
2022-12-25T23:36:37.700Z,38.85
2022-12-25T23:39:10.025Z,31.93
2022-12-25T23:41:35.892Z,31.70
2022-12-25T23:44:03.651Z,45.80
2022-12-25T23:46:31.704Z,45.38
2022-12-25T23:48:59.439Z,30.52
2022-12-25T23:51:27.417Z,30.77
2022-12-25T23:53:55.292Z,29.77
2022-12-25T23:56:23.523Z,29.63
2022-12-25T23:58:51.518Z,35.60
